SFO weather

San Francisco International Airport
San Francisco, California, United States

Public forecast

Using degrees Fahrenheit for public forecast. Weather courtesy of forecast.io.

METAR (pilot weather report)

Retrieved 2017/11/19 15:56 UTC (54 minutes ago):

KSFO 191556Z 00000KT 10SM FEW200 09/08 A3016 RMK AO2 SLP214 T00940078

TAF (pilot weather forecast)

Retrieved 2017/11/19 12:22 UTC (4 hours ago):

TAF KSFO 191120Z 1912/2018 VRB03KT P6SM FEW250 FM192000 33004KT P6SM BKN250 FM200100 28005KT P6SM BKN180 FM200800 28003KT P6SM OVC120